Terminal Aerodrome Forecast
Issued by NWS

Home | Current Version | Previous Version | Graphics & Text | Print | Product List | Glossary On
Versions: 1 2 3 4 5 6 7 8 9 10 11 12 13 14
342
FTUS43 KICT 201720
TAFCNU
TAF
KCNU 201720Z 2018/2118 27007KT P6SM FEW250
     FM210000 06007KT P6SM FEW200
     FM211000 05014KT P6SM BKN025
     FM211400 06013G20KT P6SM BKN015=

USA.gov is the U.S. government's official web portal to all federal, state and local government web resources and services.